createdAt,value
2022-11-20T00:01:26.151Z,100124.38
2022-11-20T00:03:56.148Z,100130.97
2022-11-20T00:06:24.788Z,100130.00
2022-11-20T00:08:53.804Z,100121.34
2022-11-20T00:11:23.357Z,100113.09
2022-11-20T00:13:53.105Z,100123.81
2022-11-20T00:16:24.828Z,100114.50
2022-11-20T00:18:54.101Z,100115.63
2022-11-20T00:21:24.787Z,100115.81
2022-11-20T00:23:55.281Z,100107.41
2022-11-20T00:26:24.978Z,100114.91
2022-11-20T00:28:54.595Z,100106.09
2022-11-20T00:31:24.906Z,100112.88
2022-11-20T00:33:53.349Z,100108.34
2022-11-20T00:36:23.453Z,100104.22
2022-11-20T00:38:54.548Z,100099.53
2022-11-20T00:41:23.772Z,100108.41
2022-11-20T00:43:53.348Z,100112.94
2022-11-20T00:46:25.144Z,100111.59
2022-11-20T00:48:53.600Z,100123.00
2022-11-20T00:51:23.725Z,100117.75
2022-11-20T00:53:52.034Z,100118.34
2022-11-20T00:56:21.686Z,100118.38
2022-11-20T00:58:51.030Z,100119.28
2022-11-20T01:01:21.342Z,100123.44
2022-11-20T01:03:53.098Z,100114.13
2022-11-20T01:06:22.839Z,100114.25
2022-11-20T01:08:52.191Z,100111.31
2022-11-20T01:11:22.010Z,100107.13
2022-11-20T01:13:52.286Z,100119.59
2022-11-20T01:16:23.093Z,100108.72
2022-11-20T01:18:54.347Z,100118.91
2022-11-20T01:21:24.901Z,100111.84
2022-11-20T01:23:54.528Z,100112.06
2022-11-20T01:26:25.412Z,100108.88
2022-11-20T01:28:54.251Z,100100.75
2022-11-20T01:31:25.267Z,100119.94
2022-11-20T01:33:57.155Z,100113.22
2022-11-20T01:36:28.762Z,100101.50
2022-11-20T01:38:58.837Z,100109.53
2022-11-20T01:41:45.662Z,100106.75
2022-11-20T01:44:16.079Z,100107.47
2022-11-20T01:46:54.724Z,100102.41
2022-11-20T01:49:29.441Z,100102.66
2022-11-20T01:52:01.513Z,100100.53
2022-11-20T01:54:35.950Z,100092.31
2022-11-20T01:57:05.991Z,100090.94
2022-11-20T01:59:34.210Z,100091.53
2022-11-20T02:02:02.347Z,100094.50
2022-11-20T02:04:32.115Z,100092.22
2022-11-20T02:07:02.672Z,100100.88
2022-11-20T02:09:30.932Z,100096.28
2022-11-20T02:12:00.439Z,100086.53
2022-11-20T02:14:27.870Z,100094.00
2022-11-20T02:16:57.495Z,100087.81
2022-11-20T02:19:29.530Z,100080.31
2022-11-20T02:22:04.432Z,100077.63
2022-11-20T02:24:34.029Z,100080.53
2022-11-20T02:27:04.850Z,100077.81
2022-11-20T02:29:38.782Z,100088.97
2022-11-20T02:32:07.173Z,100087.81
2022-11-20T02:34:35.269Z,100083.34
2022-11-20T02:37:04.743Z,100077.13
2022-11-20T02:39:34.256Z,100083.25
2022-11-20T02:42:03.352Z,100079.41
2022-11-20T02:44:31.447Z,100087.16
2022-11-20T02:46:59.873Z,100076.41
2022-11-20T02:49:28.185Z,100074.19
2022-11-20T02:51:56.359Z,100067.50
2022-11-20T02:54:24.451Z,100060.09
2022-11-20T02:56:54.193Z,100045.50
2022-11-20T02:59:22.683Z,100046.25
2022-11-20T03:01:51.024Z,100039.00
2022-11-20T03:04:19.276Z,100037.94
2022-11-20T03:06:47.389Z,100044.38
2022-11-20T03:09:15.490Z,100049.84
2022-11-20T03:11:43.531Z,100042.16
2022-11-20T03:14:13.154Z,100044.00
2022-11-20T03:16:41.224Z,100044.38
2022-11-20T03:19:09.386Z,100042.38
2022-11-20T03:21:38.030Z,100033.91
2022-11-20T03:24:06.563Z,100018.06
2022-11-20T03:26:34.704Z,100030.03
2022-11-20T03:29:06.441Z,100023.56
2022-11-20T03:31:37.739Z,100020.41
2022-11-20T03:34:06.746Z,100025.47
2022-11-20T03:36:35.468Z,100024.34
2022-11-20T03:39:03.637Z,100029.63
2022-11-20T03:41:33.762Z,100032.59
2022-11-20T03:44:03.744Z,100034.16
2022-11-20T03:46:32.397Z,100030.38
2022-11-20T03:49:02.338Z,100028.75
2022-11-20T03:51:31.798Z,100034.41
2022-11-20T03:54:01.605Z,100033.53
2022-11-20T03:56:31.292Z,100025.78
2022-11-20T03:58:59.576Z,100016.38
2022-11-20T04:01:30.007Z,100017.47
2022-11-20T04:03:59.192Z,100015.47
2022-11-20T04:06:30.828Z,100007.69
2022-11-20T04:09:00.198Z,100011.03
2022-11-20T04:11:29.709Z,100003.22
2022-11-20T04:13:59.647Z,100010.53
2022-11-20T04:16:30.805Z,100013.22
2022-11-20T04:19:00.478Z,100010.47
2022-11-20T04:21:30.450Z,100009.09
2022-11-20T04:23:59.228Z,100010.94
2022-11-20T04:26:30.097Z,100004.88
2022-11-20T04:28:59.303Z,99997.81
2022-11-20T04:31:29.805Z,99999.75
2022-11-20T04:34:01.074Z,100006.78
2022-11-20T04:36:31.996Z,100002.38
2022-11-20T04:39:01.110Z,99996.09
2022-11-20T04:41:31.245Z,100004.19
2022-11-20T04:44:03.493Z,100017.53
2022-11-20T04:46:33.291Z,100019.34
2022-11-20T04:49:01.790Z,100007.06
2022-11-20T04:51:31.352Z,99998.19
2022-11-20T04:53:59.519Z,99993.13
2022-11-20T04:56:27.649Z,100009.00
2022-11-20T04:58:55.752Z,100000.94
2022-11-20T05:01:25.466Z,100006.72
2022-11-20T05:03:54.321Z,100017.00
2022-11-20T05:06:23.635Z,100013.25
2022-11-20T05:08:53.238Z,100008.72
2022-11-20T05:11:22.847Z,100006.47
2022-11-20T05:13:51.737Z,99989.44
2022-11-20T05:16:22.112Z,99977.34
2022-11-20T05:18:51.003Z,99980.63
2022-11-20T05:21:19.495Z,99977.22
2022-11-20T05:23:48.243Z,99975.34
2022-11-20T05:26:20.209Z,99981.09
2022-11-20T05:28:48.582Z,99997.41
2022-11-20T05:31:23.398Z,99997.72
2022-11-20T05:33:54.645Z,100014.09
2022-11-20T05:36:22.800Z,100007.91
2022-11-20T05:38:51.520Z,100026.34
2022-11-20T05:41:22.736Z,100022.50
2022-11-20T05:43:52.581Z,100020.63
2022-11-20T05:46:28.353Z,100022.63
2022-11-20T05:48:57.873Z,100027.78
2022-11-20T05:51:26.470Z,100037.47
2022-11-20T05:53:55.032Z,100030.75
2022-11-20T05:56:24.617Z,100038.66
2022-11-20T05:58:52.849Z,100025.66
2022-11-20T06:01:23.065Z,100015.56
2022-11-20T06:03:52.115Z,100017.34
2022-11-20T06:06:21.419Z,100012.97
2022-11-20T06:08:50.196Z,100012.91
2022-11-20T06:11:19.120Z,100015.31
2022-11-20T06:13:49.132Z,100031.34
2022-11-20T06:16:19.607Z,100026.69
2022-11-20T06:18:48.348Z,100027.59
2022-11-20T06:21:18.149Z,100022.53
2022-11-20T06:23:46.957Z,100030.97
2022-11-20T06:26:17.226Z,100033.00
2022-11-20T06:28:45.609Z,100040.78
2022-11-20T06:31:17.346Z,100045.19
2022-11-20T06:33:46.044Z,100046.81
2022-11-20T06:36:15.945Z,100044.38
2022-11-20T06:38:44.857Z,100046.31
2022-11-20T06:41:14.830Z,100039.88
2022-11-20T06:43:43.218Z,100030.72
2022-11-20T06:46:12.738Z,100034.38
2022-11-20T06:48:42.838Z,100039.22
2022-11-20T06:51:11.189Z,100044.69
2022-11-20T06:53:39.869Z,100048.97
2022-11-20T06:56:08.885Z,100036.34
2022-11-20T06:58:38.420Z,100032.53
2022-11-20T07:01:08.874Z,100046.84
2022-11-20T07:03:37.184Z,100038.06
2022-11-20T07:06:07.516Z,100047.44
2022-11-20T07:08:36.097Z,100053.25
2022-11-20T07:11:06.795Z,100045.56
2022-11-20T07:13:35.447Z,100054.09
2022-11-20T07:16:04.931Z,100051.88
2022-11-20T07:18:33.114Z,100057.22
2022-11-20T07:21:03.268Z,100055.34
2022-11-20T07:23:32.883Z,100050.63
2022-11-20T07:26:05.622Z,100054.00
2022-11-20T07:28:33.838Z,100044.56
2022-11-20T07:31:02.211Z,100050.75
2022-11-20T07:33:30.511Z,100053.38
2022-11-20T07:36:00.709Z,100053.00
2022-11-20T07:38:29.264Z,100053.09
2022-11-20T07:41:02.503Z,100058.06
2022-11-20T07:43:30.705Z,100053.38
2022-11-20T07:45:59.398Z,100058.13
2022-11-20T07:48:27.609Z,100047.13
2022-11-20T07:50:56.913Z,100050.97
2022-11-20T07:53:25.106Z,100045.94
2022-11-20T07:55:54.024Z,100051.75
2022-11-20T07:58:24.043Z,100048.25
2022-11-20T08:00:52.498Z,100051.03
2022-11-20T08:03:24.945Z,100049.16
2022-11-20T08:05:54.115Z,100048.38
2022-11-20T08:08:22.893Z,100049.13
2022-11-20T08:10:51.336Z,100062.31
2022-11-20T08:13:37.000Z,100048.66
2022-11-20T08:16:06.981Z,100044.50
2022-11-20T08:18:35.072Z,100057.66
2022-11-20T08:21:05.721Z,100053.38
2022-11-20T08:23:33.930Z,100047.22
2022-11-20T08:26:01.978Z,100048.38
2022-11-20T08:28:30.245Z,100049.16
2022-11-20T08:31:00.759Z,100050.38
2022-11-20T08:33:30.836Z,100054.63
2022-11-20T08:36:02.038Z,100054.94
2022-11-20T08:38:30.106Z,100053.25
2022-11-20T08:41:17.082Z,100055.50
2022-11-20T08:43:45.516Z,100053.16
2022-11-20T08:46:13.641Z,100038.88
2022-11-20T08:48:43.377Z,100038.13
2022-11-20T08:51:12.340Z,100031.47
2022-11-20T08:53:40.719Z,100040.78
2022-11-20T08:56:10.696Z,100040.72
2022-11-20T08:59:02.033Z,100043.34
2022-11-20T09:01:27.682Z,100038.72
2022-11-20T09:03:59.061Z,100026.28
2022-11-20T09:06:27.339Z,100019.81
2022-11-20T09:08:55.609Z,100016.44
2022-11-20T09:11:24.217Z,100018.97
2022-11-20T09:13:53.555Z,100025.66
2022-11-20T09:16:21.720Z,100009.03
2022-11-20T09:19:02.263Z,100013.81
2022-11-20T09:21:42.493Z,100017.94
2022-11-20T09:24:10.854Z,100011.81
2022-11-20T09:26:38.976Z,100011.88
2022-11-20T09:29:07.113Z,100012.19
2022-11-20T09:31:35.275Z,100005.53
2022-11-20T09:34:03.469Z,100011.44
2022-11-20T09:36:31.586Z,100009.53
2022-11-20T09:39:01.145Z,100009.94
2022-11-20T09:41:47.192Z,100001.00
2022-11-20T09:44:29.636Z,99991.31
2022-11-20T09:47:03.858Z,99991.69
2022-11-20T09:49:44.976Z,99979.31
2022-11-20T09:52:24.465Z,99982.81
2022-11-20T09:54:55.654Z,99980.22
2022-11-20T09:57:28.454Z,99974.97
2022-11-20T09:59:59.148Z,99968.25
2022-11-20T10:02:32.143Z,99977.63
2022-11-20T10:05:09.007Z,99974.47
2022-11-20T10:07:43.756Z,99968.63
2022-11-20T10:10:18.392Z,99976.13
2022-11-20T10:13:05.091Z,99966.81
2022-11-20T10:15:40.869Z,99956.38
2022-11-20T10:18:25.659Z,99946.66
2022-11-20T10:21:05.786Z,99945.59
2022-11-20T10:23:56.962Z,99944.38
2022-11-20T10:26:37.577Z,99929.53
2022-11-20T10:29:14.503Z,99930.69
2022-11-20T10:31:44.541Z,99930.28
2022-11-20T10:34:24.046Z,99927.97
2022-11-20T10:36:58.332Z,99925.28
2022-11-20T10:39:34.624Z,99919.81
2022-11-20T10:42:06.779Z,99932.56
2022-11-20T10:44:56.526Z,99923.63
2022-11-20T10:47:24.941Z,99923.28
2022-11-20T10:49:56.202Z,99928.31
2022-11-20T10:52:34.252Z,99922.06
2022-11-20T10:55:13.062Z,99924.38
2022-11-20T10:57:55.031Z,99929.06
2022-11-20T11:00:23.650Z,99920.19
2022-11-20T11:02:53.308Z,99913.22
2022-11-20T11:05:33.586Z,99918.59
2022-11-20T11:08:01.962Z,99927.94
2022-11-20T11:10:39.627Z,99926.44
2022-11-20T11:13:09.459Z,99920.94
2022-11-20T11:15:41.503Z,99922.91
2022-11-20T11:18:11.630Z,99920.88
2022-11-20T11:20:40.300Z,99917.00
2022-11-20T11:23:30.803Z,99927.09
2022-11-20T11:26:00.222Z,99921.97
2022-11-20T11:28:30.343Z,99925.94
2022-11-20T11:30:58.453Z,99920.47
2022-11-20T11:33:28.006Z,99927.13
2022-11-20T11:35:59.265Z,99930.56
2022-11-20T11:38:33.039Z,99925.97
2022-11-20T11:41:01.653Z,99925.53
2022-11-20T11:43:52.106Z,99933.22
2022-11-20T11:46:35.209Z,99940.66
2022-11-20T11:49:16.277Z,99940.69
2022-11-20T11:52:07.261Z,99961.19
2022-11-20T11:54:43.096Z,99955.72
2022-11-20T11:57:22.873Z,99954.78
2022-11-20T12:00:02.909Z,99953.97
2022-11-20T12:02:41.248Z,99957.88
2022-11-20T12:05:20.630Z,99967.88
2022-11-20T12:07:56.201Z,99969.00
2022-11-20T12:10:30.841Z,99971.72
2022-11-20T12:13:06.954Z,99966.38
2022-11-20T12:15:38.003Z,99971.81
2022-11-20T12:18:15.553Z,99958.91
2022-11-20T12:20:53.390Z,99953.47
2022-11-20T12:23:30.463Z,99956.16
2022-11-20T12:26:05.412Z,99957.38
2022-11-20T12:28:51.252Z,99955.09
2022-11-20T12:31:48.507Z,99954.63
2022-11-20T12:34:29.976Z,99943.72
2022-11-20T12:37:05.097Z,99944.94
2022-11-20T12:39:37.481Z,99942.97
2022-11-20T12:42:48.174Z,99937.94
2022-11-20T12:45:40.956Z,99935.25
2022-11-20T12:48:26.691Z,99937.63
2022-11-20T12:51:16.428Z,99937.16
2022-11-20T12:53:54.768Z,99940.13
2022-11-20T12:56:31.089Z,99950.66
2022-11-20T12:59:12.077Z,99950.22
2022-11-20T13:01:50.815Z,99953.38
2022-11-20T13:04:39.660Z,99958.81
2022-11-20T13:07:11.114Z,99952.56
2022-11-20T13:09:47.879Z,99957.94
2022-11-20T13:12:22.202Z,99944.78
2022-11-20T13:14:58.118Z,99936.53
2022-11-20T13:17:36.321Z,99944.28
2022-11-20T13:20:09.037Z,99937.28
2022-11-20T13:22:45.944Z,99932.22
2022-11-20T13:25:25.370Z,99942.53
2022-11-20T13:27:54.555Z,99939.41
2022-11-20T13:30:24.872Z,99929.63
2022-11-20T13:32:58.235Z,99940.78
2022-11-20T13:35:33.232Z,99936.16
2022-11-20T13:38:12.501Z,99937.78
2022-11-20T13:40:52.447Z,99942.47
2022-11-20T13:43:36.292Z,99942.31
2022-11-20T13:46:07.030Z,99950.50
2022-11-20T13:48:36.948Z,99952.38
2022-11-20T13:51:28.453Z,99946.25
2022-11-20T13:54:18.873Z,99956.69
2022-11-20T13:57:01.462Z,99948.16
2022-11-20T13:59:45.520Z,99944.66
2022-11-20T14:02:16.632Z,99942.28
2022-11-20T14:04:49.430Z,99946.94
2022-11-20T14:07:20.566Z,99945.69
2022-11-20T14:09:54.157Z,99946.44
2022-11-20T14:12:23.917Z,99942.19
2022-11-20T14:14:54.597Z,99936.34
2022-11-20T14:17:26.416Z,99927.34
2022-11-20T14:19:57.747Z,99931.16
2022-11-20T14:22:28.696Z,99940.06
2022-11-20T14:25:05.917Z,99936.94
2022-11-20T14:27:36.656Z,99944.19
2022-11-20T14:30:05.841Z,99932.50
2022-11-20T14:32:37.144Z,99926.97
2022-11-20T14:35:11.339Z,99926.81
2022-11-20T14:37:43.077Z,99924.41
2022-11-20T14:40:27.140Z,99922.13
2022-11-20T14:42:55.260Z,99924.47
2022-11-20T14:45:24.230Z,99932.25
2022-11-20T14:47:54.431Z,99945.66
2022-11-20T14:50:25.807Z,99953.06
2022-11-20T14:52:57.790Z,99947.38
2022-11-20T14:55:31.170Z,99946.72
2022-11-20T14:58:00.754Z,99941.13
2022-11-20T15:00:29.750Z,99936.88
2022-11-20T15:02:58.370Z,99923.13
2022-11-20T15:05:28.664Z,99929.59
2022-11-20T15:08:11.584Z,99915.50
2022-11-20T15:10:40.343Z,99918.06
2022-11-20T15:13:14.899Z,99916.72
2022-11-20T15:15:48.814Z,99914.31
2022-11-20T15:18:19.127Z,99910.75
2022-11-20T15:20:47.936Z,99914.16
2022-11-20T15:23:20.007Z,99912.88
2022-11-20T15:25:50.567Z,99910.94
2022-11-20T15:28:21.486Z,99921.28
2022-11-20T15:30:51.185Z,99920.41
2022-11-20T15:33:20.023Z,99913.25
2022-11-20T15:35:48.217Z,99919.72
2022-11-20T15:38:17.685Z,99914.25
2022-11-20T15:40:45.991Z,99915.38
2022-11-20T15:43:14.534Z,99907.63
2022-11-20T15:45:45.915Z,99902.16
2022-11-20T15:48:17.389Z,99889.41
2022-11-20T15:50:52.028Z,99887.34
2022-11-20T15:53:21.537Z,99886.19
2022-11-20T15:55:50.031Z,99885.34
2022-11-20T15:58:18.863Z,99884.91
2022-11-20T16:00:47.544Z,99881.13
2022-11-20T16:03:17.175Z,99888.06
2022-11-20T16:05:45.594Z,99881.44
2022-11-20T16:08:13.938Z,99881.63
2022-11-20T16:10:43.971Z,99891.00
2022-11-20T16:13:32.569Z,99893.47
2022-11-20T16:16:05.962Z,99889.91
2022-11-20T16:18:34.830Z,99879.56
2022-11-20T16:21:03.068Z,99885.91
2022-11-20T16:23:31.255Z,99886.63
2022-11-20T16:26:00.787Z,99885.31
2022-11-20T16:28:29.122Z,99877.91
2022-11-20T16:30:57.325Z,99888.19
2022-11-20T16:33:25.450Z,99883.50
2022-11-20T16:35:53.620Z,99891.84
2022-11-20T16:38:21.710Z,99889.38
2022-11-20T16:40:49.827Z,99894.03
2022-11-20T16:43:19.280Z,99887.28
2022-11-20T16:45:47.865Z,99901.31
2022-11-20T16:48:18.374Z,99907.06
2022-11-20T16:50:51.524Z,99903.44
2022-11-20T16:53:20.547Z,99900.31
2022-11-20T16:55:49.643Z,99888.34
2022-11-20T16:58:19.304Z,99888.22
2022-11-20T17:00:51.685Z,99890.94
2022-11-20T17:03:21.078Z,99897.00
2022-11-20T17:05:49.360Z,99894.41
2022-11-20T17:08:17.458Z,99891.75
2022-11-20T17:10:45.551Z,99887.72
2022-11-20T17:13:13.836Z,99904.81
2022-11-20T17:15:43.361Z,99895.41
2022-11-20T17:18:11.415Z,99907.94
2022-11-20T17:20:39.506Z,99904.94
2022-11-20T17:23:07.594Z,99901.16
2022-11-20T17:25:35.883Z,99896.25
2022-11-20T17:28:03.981Z,99893.41
2022-11-20T17:30:32.048Z,99896.97
2022-11-20T17:33:02.333Z,99902.44
2022-11-20T17:35:30.488Z,99908.06
2022-11-20T17:37:58.645Z,99901.44
2022-11-20T17:40:27.796Z,99899.88
2022-11-20T17:42:56.626Z,99915.44
2022-11-20T17:45:24.924Z,99911.94
2022-11-20T17:47:52.989Z,99919.50
2022-11-20T17:50:22.630Z,99916.13
2022-11-20T17:52:50.775Z,99907.50
2022-11-20T17:55:18.931Z,99920.31
2022-11-20T17:57:57.076Z,99932.53
2022-11-20T18:00:27.060Z,99945.97
2022-11-20T18:02:55.469Z,99922.19
2022-11-20T18:05:24.948Z,99944.47
2022-11-20T18:07:54.772Z,99924.41
2022-11-20T18:10:23.010Z,99951.84
2022-11-20T18:12:51.183Z,99946.28
2022-11-20T18:15:19.637Z,99935.72
2022-11-20T18:17:47.817Z,99944.06
2022-11-20T18:20:36.563Z,99950.16
2022-11-20T18:23:05.494Z,99935.53
2022-11-20T18:25:33.923Z,99946.53
2022-11-20T18:28:02.074Z,99958.03
2022-11-20T18:30:30.238Z,99978.09
2022-11-20T18:32:58.387Z,99972.63
2022-11-20T18:35:28.603Z,99991.00
2022-11-20T18:37:56.756Z,99966.50
2022-11-20T18:40:26.282Z,99950.22
2022-11-20T18:43:12.330Z,99961.19
2022-11-20T18:45:40.793Z,99958.97
2022-11-20T18:48:08.856Z,99979.25
2022-11-20T18:50:37.021Z,99969.38
2022-11-20T18:53:05.340Z,99977.94
2022-11-20T18:55:34.828Z,99971.06
2022-11-20T18:58:03.036Z,99970.56
2022-11-20T19:00:31.476Z,99970.97
2022-11-20T19:02:59.669Z,99968.16
2022-11-20T19:05:27.718Z,99969.38
2022-11-20T19:07:55.813Z,99965.91
2022-11-20T19:10:24.478Z,99962.31
2022-11-20T19:12:54.106Z,99966.25
2022-11-20T19:15:22.471Z,99987.94
2022-11-20T19:17:50.661Z,99993.88
2022-11-20T19:20:19.109Z,99994.03
2022-11-20T19:22:51.493Z,99989.50
2022-11-20T19:25:19.562Z,99980.56
2022-11-20T19:27:47.631Z,99970.47
2022-11-20T19:30:17.654Z,99972.03
2022-11-20T19:32:45.843Z,99980.03
2022-11-20T19:35:14.145Z,99974.38
2022-11-20T19:37:42.286Z,99965.88
2022-11-20T19:40:10.848Z,99961.88
2022-11-20T19:42:39.514Z,99972.47
2022-11-20T19:45:09.208Z,99987.34
2022-11-20T19:48:07.110Z,99983.44
2022-11-20T19:50:26.926Z,99988.38
2022-11-20T19:52:58.742Z,99983.34
2022-11-20T19:55:27.476Z,99983.91
2022-11-20T19:57:55.909Z,99996.88
2022-11-20T20:00:29.681Z,99997.75
2022-11-20T20:03:01.930Z,100011.41
2022-11-20T20:05:30.105Z,99997.59
2022-11-20T20:07:58.336Z,99993.69
2022-11-20T20:10:26.434Z,100010.53
2022-11-20T20:12:54.528Z,100006.00
2022-11-20T20:15:22.638Z,100000.63
2022-11-20T20:17:53.077Z,100003.78
2022-11-20T20:20:23.064Z,99992.94
2022-11-20T20:22:51.286Z,99986.44
2022-11-20T20:25:19.664Z,99968.44
2022-11-20T20:27:47.838Z,99974.34
2022-11-20T20:30:16.478Z,99990.53
2022-11-20T20:32:51.934Z,99977.88
2022-11-20T20:35:25.733Z,99965.81
2022-11-20T20:37:53.839Z,99956.66
2022-11-20T20:40:22.019Z,99957.31
2022-11-20T20:42:50.256Z,99963.44
2022-11-20T20:45:18.404Z,99974.28
2022-11-20T20:47:47.061Z,99962.97
2022-11-20T20:50:15.295Z,99967.44
2022-11-20T20:52:45.054Z,99960.78
2022-11-20T20:55:13.247Z,99952.72
2022-11-20T20:57:41.849Z,99957.69
2022-11-20T21:00:10.575Z,99952.66
2022-11-20T21:02:39.649Z,99959.81
2022-11-20T21:05:08.212Z,99955.25
2022-11-20T21:07:56.442Z,99971.44
2022-11-20T21:10:25.955Z,99961.00
2022-11-20T21:12:54.096Z,99952.44
2022-11-20T21:15:22.754Z,99960.25
2022-11-20T21:17:50.898Z,99957.06
2022-11-20T21:20:33.102Z,99962.88
2022-11-20T21:23:01.340Z,99972.69
2022-11-20T21:25:30.813Z,99965.44
2022-11-20T21:27:58.952Z,99966.06
2022-11-20T21:30:27.032Z,99968.31
2022-11-20T21:32:55.295Z,99973.28
2022-11-20T21:35:23.408Z,99974.56
2022-11-20T21:37:51.450Z,99975.31
2022-11-20T21:40:19.945Z,99969.84
2022-11-20T21:42:49.510Z,99969.03
2022-11-20T21:45:17.648Z,99949.22
2022-11-20T21:47:45.841Z,99946.41
2022-11-20T21:50:13.994Z,99952.25
2022-11-20T21:52:42.068Z,99960.25
2022-11-20T21:55:10.262Z,99958.09
2022-11-20T21:57:38.558Z,99965.22
2022-11-20T22:00:10.585Z,99957.94
2022-11-20T22:02:39.833Z,99952.91
2022-11-20T22:05:08.977Z,99955.41
2022-11-20T22:07:37.041Z,99946.88
2022-11-20T22:10:05.785Z,99934.75
2022-11-20T22:12:33.934Z,99939.69
2022-11-20T22:15:01.120Z,99935.88
2022-11-20T22:17:47.749Z,99924.34
2022-11-20T22:20:16.116Z,99918.66
2022-11-20T22:22:44.383Z,99927.59
2022-11-20T22:25:12.461Z,99922.59
2022-11-20T22:27:40.560Z,99927.53
2022-11-20T22:30:09.899Z,99917.44
2022-11-20T22:32:39.411Z,99920.25
2022-11-20T22:35:08.218Z,99914.31
2022-11-20T22:37:36.309Z,99904.81
2022-11-20T22:40:04.797Z,99916.66
2022-11-20T22:42:33.009Z,99923.81
2022-11-20T22:45:01.031Z,99933.00
2022-11-20T22:47:29.151Z,99927.94
2022-11-20T22:49:58.679Z,99931.75
2022-11-20T22:52:26.794Z,99926.69
2022-11-20T22:54:55.007Z,99922.91
2022-11-20T22:57:23.158Z,99920.81
2022-11-20T22:59:51.696Z,99913.06
2022-11-20T23:02:20.014Z,99916.09
2022-11-20T23:04:48.085Z,99895.97
2022-11-20T23:07:17.634Z,99890.38
2022-11-20T23:09:45.867Z,99895.44
2022-11-20T23:12:14.070Z,99881.63
2022-11-20T23:14:42.254Z,99877.13
2022-11-20T23:17:10.632Z,99883.41
2022-11-20T23:19:38.729Z,99875.31
2022-11-20T23:22:06.818Z,99859.19
2022-11-20T23:24:36.273Z,99851.47
2022-11-20T23:27:04.391Z,99851.66
2022-11-20T23:29:32.563Z,99849.75
2022-11-20T23:32:00.714Z,99859.53
2022-11-20T23:34:29.160Z,99850.03
2022-11-20T23:36:57.446Z,99846.25
2022-11-20T23:39:25.656Z,99839.00
2022-11-20T23:41:55.284Z,99830.47
2022-11-20T23:44:23.700Z,99820.16
2022-11-20T23:46:51.845Z,99822.38
2022-11-20T23:49:19.973Z,99820.81
2022-11-20T23:51:48.099Z,99818.16
2022-11-20T23:54:16.222Z,99814.72
2022-11-20T23:56:44.314Z,99815.53
2022-11-20T23:59:13.899Z,99816.03
